Time;durP1;ratioP1;P1;durP2;ratioP2;P2;SDS_P1;SDS_P2;PMS_P1;PMS_P2;Temp;Humidity;BMP_temperature;BMP_pressure;BME280_temperature;BME280_humidity;BME280_pressure;Samples;Min_cycle;Max_cycle;Signal;HPM_P1;HPM_P2
2022/03/14 00:02:07;;;;;;;18.60;15.23;;;13.60;56.20;;;;;;5033268;28;20448;-64
2022/03/14 00:04:38;;;;;;;20.13;16.60;;;13.60;56.10;;;;;;5031352;28;20209;-65
2022/03/14 00:07:05;;;;;;;16.90;14.37;;;13.60;55.90;;;;;;5011571;28;20513;-65
2022/03/14 00:09:30;;;;;;;19.10;14.80;;;13.50;56.20;;;;;;5012276;28;20453;-68
2022/03/14 00:11:57;;;;;;;20.80;18.00;;;13.50;55.20;;;;;;5032885;28;20844;-64
2022/03/14 00:14:26;;;;;;;21.83;18.53;;;13.50;53.70;;;;;;5031796;28;20525;-65
2022/03/14 00:16:52;;;;;;;19.40;15.70;;;13.50;53.00;;;;;;5032390;28;20412;-64
2022/03/14 00:19:20;;;;;;;19.40;15.67;;;13.50;53.60;;;;;;5032645;28;20425;-64
2022/03/14 00:21:47;;;;;;;18.50;15.30;;;13.50;53.40;;;;;;5028851;28;20455;-64
2022/03/14 00:24:13;;;;;;;18.70;14.90;;;13.50;53.10;;;;;;5032205;28;20448;-64
2022/03/14 00:26:39;;;;;;;17.57;15.60;;;13.50;53.60;;;;;;5032004;28;20767;-64
2022/03/14 00:29:09;;;;;;;19.17;16.87;;;13.50;54.70;;;;;;4997347;28;20421;-64
2022/03/14 00:31:36;;;;;;;22.77;17.17;;;13.50;54.30;;;;;;5012187;28;20840;-64
2022/03/14 00:34:02;;;;;;;23.93;16.77;;;13.40;54.10;;;;;;5012981;28;20417;-64
2022/03/14 00:36:28;;;;;;;19.70;16.40;;;13.40;53.70;;;;;;5016781;28;20414;-65
2022/03/14 00:38:54;;;;;;;20.13;15.50;;;13.40;54.20;;;;;;5011733;28;20916;-64
2022/03/14 00:41:20;;;;;;;19.57;16.00;;;13.40;55.20;;;;;;5027772;28;20860;-69
2022/03/14 00:43:47;;;;;;;19.60;15.83;;;13.40;56.00;;;;;;5031939;28;20411;-65
2022/03/14 00:46:16;;;;;;;19.93;15.93;;;13.50;57.60;;;;;;5032557;28;20422;-64
2022/03/14 00:48:43;;;;;;;16.43;14.73;;;13.40;58.50;;;;;;5031211;28;20474;-65
2022/03/14 00:51:08;;;;;;;15.90;14.17;;;13.40;58.40;;;;;;5032087;28;20431;-64
2022/03/14 00:53:35;;;;;;;19.23;15.10;;;13.40;57.40;;;;;;5031408;28;20513;-64
2022/03/14 00:56:01;;;;;;;17.17;15.37;;;13.40;58.50;;;;;;5032130;28;20204;-64
2022/03/14 00:58:29;;;;;;;18.50;15.10;;;13.40;58.70;;;;;;5030954;28;20423;-65
2022/03/14 01:00:55;;;;;;;25.40;16.17;;;13.30;58.60;;;;;;5014160;28;20431;-64
2022/03/14 01:03:21;;;;;;;18.63;16.00;;;13.30;58.20;;;;;;5032186;28;20428;-64
2022/03/14 01:05:47;;;;;;;18.80;16.17;;;13.30;58.80;;;;;;5012025;28;21007;-65
2022/03/14 01:08:12;;;;;;;23.23;16.80;;;13.30;57.80;;;;;;5024843;28;20422;-65
2022/03/14 01:10:38;;;;;;;21.77;19.20;;;13.20;58.10;;;;;;5013449;28;20210;-64
2022/03/14 01:13:04;;;;;;;24.23;19.17;;;13.20;57.90;;;;;;5014096;28;20245;-64
2022/03/14 01:15:34;;;;;;;22.80;18.00;;;13.20;57.10;;;;;;5030968;28;20236;-65
2022/03/14 01:18:00;;;;;;;24.90;19.47;;;13.30;56.40;;;;;;5032400;28;20825;-65
2022/03/14 01:20:26;;;;;;;19.33;16.83;;;13.30;58.50;;;;;;5031098;28;20447;-71
2022/03/14 01:22:55;;;;;;;19.73;17.60;;;13.30;57.90;;;;;;5024521;28;20985;-64
2022/03/14 01:25:23;;;;;;;19.80;16.90;;;13.30;57.00;;;;;;5012033;28;20853;-64
2022/03/14 01:27:50;;;;;;;21.67;15.83;;;13.30;55.70;;;;;;4994542;28;20515;-65
2022/03/14 01:30:17;;;;;;;20.20;16.33;;;13.30;54.70;;;;;;5021287;28;20432;-65
2022/03/14 01:32:43;;;;;;;17.20;14.87;;;13.30;55.00;;;;;;5031019;28;21281;-65
2022/03/14 01:35:08;;;;;;;17.33;15.53;;;13.30;55.70;;;;;;5029716;28;20446;-65
2022/03/14 01:37:34;;;;;;;18.43;15.80;;;13.30;58.00;;;;;;5030831;28;20191;-65
2022/03/14 01:40:00;;;;;;;18.27;16.37;;;13.30;59.90;;;;;;5031867;28;20636;-64
2022/03/14 01:42:26;;;;;;;23.07;17.53;;;13.30;64.00;;;;;;5021625;28;20275;-71
2022/03/14 01:44:52;;;;;;;19.13;16.10;;;13.00;61.00;;;;;;5015684;28;20459;-64
2022/03/14 01:47:17;;;;;;;22.23;16.30;;;12.70;61.70;;;;;;4998435;28;20703;-68
2022/03/14 01:49:44;;;;;;;20.47;17.60;;;12.70;62.70;;;;;;5014828;28;20550;-65
2022/03/14 01:52:11;;;;;;;20.57;16.70;;;12.70;62.30;;;;;;5015684;28;20279;-65
2022/03/14 01:54:38;;;;;;;21.30;16.60;;;12.80;65.70;;;;;;5015083;28;20425;-65
2022/03/14 01:57:05;;;;;;;19.67;16.73;;;12.80;67.70;;;;;;5024355;28;20517;-64
2022/03/14 01:59:32;;;;;;;20.73;16.13;;;12.80;71.40;;;;;;5034603;28;20421;-65
2022/03/14 02:01:59;;;;;;;22.33;17.30;;;12.80;74.40;;;;;;5034678;28;20426;-65
2022/03/14 02:04:24;;;;;;;18.87;16.77;;;12.70;75.50;;;;;;5035684;28;21075;-64
2022/03/14 02:06:54;;;;;;;21.20;16.73;;;12.70;78.10;;;;;;5019754;28;20442;-64
2022/03/14 02:09:20;;;;;;;20.47;16.23;;;12.70;80.60;;;;;;5015677;28;20175;-65
2022/03/14 02:12:13;;;;;;;20.83;16.90;;;12.70;82.80;;;;;;4997256;28;20438;-65
2022/03/14 02:14:41;;;;;;;19.10;17.00;;;12.60;85.10;;;;;;5012788;28;20458;-65
2022/03/14 02:17:12;;;;;;;22.03;17.23;;;12.50;87.70;;;;;;5031043;28;20475;-65
2022/03/14 02:19:39;;;;;;;24.23;19.20;;;12.50;88.50;;;;;;5016345;28;20428;-65
2022/03/14 02:22:11;;;;;;;21.20;16.33;;;12.40;90.60;;;;;;5033228;28;20423;-64
2022/03/14 02:24:38;;;;;;;20.30;17.50;;;12.50;91.40;;;;;;5032371;28;20545;-65
2022/03/14 02:27:04;;;;;;;21.37;18.00;;;12.40;91.90;;;;;;5003568;28;20930;-64
2022/03/14 02:29:30;;;;;;;20.13;16.93;;;12.40;92.50;;;;;;5017373;28;20506;-70
2022/03/14 02:31:56;;;;;;;22.13;18.10;;;12.30;92.30;;;;;;5034673;28;20512;-64
2022/03/14 02:34:21;;;;;;;21.03;17.93;;;12.30;92.50;;;;;;5002941;28;20237;-64
2022/03/14 02:36:47;;;;;;;20.57;17.20;;;12.30;93.30;;;;;;5014365;28;20181;-64
2022/03/14 02:39:13;;;;;;;22.77;18.80;;;12.40;93.60;;;;;;4997639;28;20259;-64
2022/03/14 02:41:40;;;;;;;20.53;17.07;;;12.40;94.20;;;;;;5014001;28;20431;-64
2022/03/14 02:44:08;;;;;;;20.40;16.67;;;12.40;94.70;;;;;;5014575;28;21059;-64
2022/03/14 02:46:37;;;;;;;19.70;17.40;;;12.40;95.00;;;;;;5026541;28;20440;-64
2022/03/14 02:49:09;;;;;;;21.20;16.57;;;12.30;95.20;;;;;;5002529;28;20490;-64
2022/03/14 02:51:38;;;;;;;20.90;18.20;;;12.30;95.60;;;;;;5013350;28;20453;-65
2022/03/14 02:54:05;;;;;;;24.17;18.17;;;12.30;96.30;;;;;;5014798;28;20465;-64
2022/03/14 02:56:32;;;;;;;23.63;18.67;;;12.20;96.50;;;;;;5021392;28;20420;-70
2022/03/14 02:58:58;;;;;;;25.00;21.17;;;12.20;97.00;;;;;;5034045;28;20508;-64
2022/03/14 03:01:23;;;;;;;27.60;19.93;;;12.10;97.20;;;;;;5034443;28;20492;-64
2022/03/14 03:03:49;;;;;;;22.93;19.10;;;12.20;97.60;;;;;;5033364;28;20445;-64
2022/03/14 03:06:17;;;;;;;25.43;19.53;;;12.10;97.90;;;;;;5016270;28;20178;-64
2022/03/14 03:08:44;;;;;;;22.70;19.63;;;12.10;98.30;;;;;;5033355;28;20456;-64
2022/03/14 03:11:13;;;;;;;24.17;17.90;;;12.10;98.50;;;;;;5014870;28;20411;-64
2022/03/14 03:13:43;;;;;;;19.40;16.57;;;12.10;99.00;;;;;;5013495;28;20418;-65
2022/03/14 03:16:10;;;;;;;21.30;18.30;;;12.10;98.30;;;;;;5014339;28;20505;-65
2022/03/14 03:18:36;;;;;;;20.67;16.47;;;12.10;97.90;;;;;;5015405;28;20986;-64
2022/03/14 03:21:02;;;;;;;18.97;16.00;;;12.10;98.20;;;;;;5032850;28;20436;-64
2022/03/14 03:23:29;;;;;;;18.90;16.90;;;12.10;98.20;;;;;;5033828;28;20414;-64
2022/03/14 03:25:55;;;;;;;21.90;17.33;;;12.00;98.60;;;;;;5017656;28;20458;-64
2022/03/14 03:28:21;;;;;;;19.50;16.50;;;12.10;99.20;;;;;;5016571;28;20651;-64
2022/03/14 03:30:47;;;;;;;19.80;16.43;;;12.10;99.40;;;;;;4979617;28;20413;-64
2022/03/14 03:33:13;;;;;;;20.83;17.07;;;12.00;99.50;;;;;;5018690;28;20418;-65
2022/03/14 03:35:39;;;;;;;21.50;17.00;;;12.00;99.80;;;;;;5013725;28;20928;-65
2022/03/14 03:38:05;;;;;;;20.97;17.03;;;12.00;99.90;;;;;;5015863;28;20273;-64
2022/03/14 03:40:31;;;;;;;22.63;18.30;;;12.00;99.90;;;;;;5031726;28;20172;-70
2022/03/14 03:42:56;;;;;;;20.50;17.27;;;12.00;99.90;;;;;;5032426;28;20424;-64
2022/03/14 03:45:22;;;;;;;21.20;16.83;;;12.00;99.90;;;;;;5033686;28;20214;-64
2022/03/14 03:47:48;;;;;;;20.50;17.07;;;12.00;99.90;;;;;;5032956;28;20182;-64
2022/03/14 03:50:16;;;;;;;19.33;17.23;;;12.00;99.90;;;;;;5031340;28;20465;-64
2022/03/14 03:52:41;;;;;;;21.63;17.37;;;12.10;99.90;;;;;;5014905;28;20414;-65
2022/03/14 03:55:08;;;;;;;18.10;16.20;;;12.10;99.90;;;;;;5033257;28;20847;-65
2022/03/14 03:57:35;;;;;;;18.37;16.40;;;12.10;99.90;;;;;;5015302;28;20438;-71
2022/03/14 04:00:04;;;;;;;26.63;17.50;;;12.10;99.90;;;;;;5028922;28;20472;-64
2022/03/14 04:02:35;;;;;;;20.60;17.13;;;12.10;99.90;;;;;;5013455;28;20417;-64
2022/03/14 04:05:02;;;;;;;21.47;16.40;;;12.00;99.90;;;;;;5024694;28;20456;-64
2022/03/14 04:07:29;;;;;;;18.70;16.70;;;12.10;99.90;;;;;;5032600;28;20409;-64
2022/03/14 04:09:56;;;;;;;18.90;16.53;;;12.00;99.90;;;;;;5014637;28;21091;-64
2022/03/14 04:12:24;;;;;;;18.03;15.90;;;12.10;99.90;;;;;;5014518;28;20432;-64
2022/03/14 04:14:51;;;;;;;20.43;17.93;;;12.00;99.90;;;;;;5032463;28;20413;-65
2022/03/14 04:17:18;;;;;;;19.57;17.30;;;12.00;99.90;;;;;;5032014;28;20820;-64
2022/03/14 04:19:44;;;;;;;21.70;17.70;;;12.00;99.90;;;;;;5031812;28;20474;-64
2022/03/14 04:22:11;;;;;;;23.83;16.70;;;12.00;99.90;;;;;;5032612;28;20480;-65
2022/03/14 04:24:37;;;;;;;19.37;16.60;;;12.00;99.90;;;;;;5025304;28;20468;-71
2022/03/14 04:27:04;;;;;;;12.87;11.57;;;12.00;99.90;;;;;;5031802;28;20903;-64
2022/03/14 04:29:30;;;;;;;12.60;11.30;;;11.80;99.90;;;;;;5031525;28;20444;-64
2022/03/14 04:31:56;;;;;;;15.27;13.30;;;11.90;99.90;;;;;;5031622;28;20417;-64
2022/03/14 04:34:22;;;;;;;16.70;13.40;;;11.90;99.90;;;;;;5032110;28;20427;-65
2022/03/14 04:36:50;;;;;;;13.40;12.00;;;11.90;99.90;;;;;;5011932;28;20759;-64
2022/03/14 04:39:17;;;;;;;10.10;8.47;;;11.90;99.90;;;;;;5013012;28;20422;-64
2022/03/14 04:41:43;;;;;;;7.60;6.90;;;11.90;99.90;;;;;;5021864;28;20901;-65
2022/03/14 04:44:09;;;;;;;7.27;6.57;;;12.00;99.90;;;;;;5030685;28;20425;-64
2022/03/14 04:46:35;;;;;;;7.23;6.53;;;12.00;99.90;;;;;;5010552;28;20501;-71
2022/03/14 04:49:04;;;;;;;6.80;5.93;;;12.00;99.90;;;;;;5026378;28;20462;-65
2022/03/14 04:51:30;;;;;;;6.07;5.57;;;11.80;99.90;;;;;;5030757;28;20451;-64
2022/03/14 04:53:56;;;;;;;7.73;5.80;;;11.80;99.90;;;;;;5029703;28;20483;-65
2022/03/14 04:56:21;;;;;;;6.30;5.70;;;11.90;99.90;;;;;;5011505;28;20443;-64
2022/03/14 04:58:47;;;;;;;6.57;5.97;;;12.10;99.90;;;;;;5023205;28;20270;-65
2022/03/14 05:01:13;;;;;;;7.30;6.70;;;12.00;99.90;;;;;;5014607;28;20905;-64
2022/03/14 05:03:39;;;;;;;8.97;8.07;;;12.10;99.90;;;;;;5027167;28;20424;-72
2022/03/14 05:06:04;;;;;;;9.90;8.70;;;12.00;99.90;;;;;;5031298;28;20201;-66
2022/03/14 05:08:30;;;;;;;10.73;7.20;;;11.80;99.90;;;;;;5028222;28;20528;-66
2022/03/14 05:10:57;;;;;;;10.33;9.40;;;11.70;99.90;;;;;;5006224;28;20209;-67
2022/03/14 05:13:23;;;;;;;9.60;8.70;;;11.80;99.90;;;;;;5020207;28;20212;-65
2022/03/14 05:15:49;;;;;;;8.67;7.87;;;11.80;99.90;;;;;;5027021;28;20435;-65
2022/03/14 05:18:15;;;;;;;10.40;9.30;;;12.00;99.90;;;;;;5019171;28;20418;-65
2022/03/14 05:20:41;;;;;;;12.00;9.93;;;11.90;99.90;;;;;;5011766;28;20436;-72
2022/03/14 05:23:06;;;;;;;13.03;11.83;;;12.00;99.90;;;;;;5024288;28;20424;-65
2022/03/14 05:25:32;;;;;;;11.93;10.73;;;12.00;99.90;;;;;;5013887;28;20457;-66
2022/03/14 05:27:58;;;;;;;13.93;12.30;;;12.00;99.90;;;;;;5030776;28;20899;-65
2022/03/14 05:30:24;;;;;;;13.90;11.93;;;12.00;99.90;;;;;;5031222;28;20927;-65
2022/03/14 05:32:50;;;;;;;9.00;8.10;;;12.10;99.90;;;;;;5030666;28;20837;-65
2022/03/14 05:35:16;;;;;;;9.83;8.83;;;12.00;99.90;;;;;;5012568;28;20584;-64
2022/03/14 05:37:43;;;;;;;10.17;9.27;;;12.10;99.90;;;;;;5026307;28;20449;-66
2022/03/14 05:40:15;;;;;;;12.40;10.57;;;12.10;99.90;;;;;;5012202;28;20434;-64
2022/03/14 05:42:47;;;;;;;9.17;8.37;;;12.10;99.90;;;;;;5032440;28;20467;-70
2022/03/14 05:45:15;;;;;;;7.00;6.30;;;12.10;99.90;;;;;;5051314;28;20456;-64
2022/03/14 05:47:40;;;;;;;10.97;10.07;;;12.10;99.90;;;;;;5034725;28;20457;-70
2022/03/14 05:50:07;;;;;;;7.43;6.77;;;12.10;99.90;;;;;;5031274;28;20467;-64
2022/03/14 05:52:33;;;;;;;7.90;7.20;;;12.10;99.90;;;;;;5031668;28;20424;-64
2022/03/14 05:54:58;;;;;;;7.05;6.35;;;11.90;99.90;;;;;;5029204;28;20422;-64
2022/03/14 05:57:24;;;;;;;8.10;7.40;;;11.90;99.90;;;;;;5031244;28;20186;-65
2022/03/14 05:59:50;;;;;;;7.07;6.50;;;11.90;99.90;;;;;;5030281;28;20656;-65
2022/03/14 06:02:21;;;;;;;9.63;7.53;;;11.80;99.90;;;;;;5023555;28;20617;-66
2022/03/14 06:04:50;;;;;;;6.00;4.83;;;11.80;99.90;;;;;;5004169;28;20861;-65
2022/03/14 06:07:16;;;;;;;5.90;5.40;;;11.80;99.90;;;;;;5031503;28;20428;-64
2022/03/14 06:09:41;;;;;;;5.43;5.03;;;11.80;99.90;;;;;;5019616;28;20421;-69
2022/03/14 06:12:08;;;;;;;6.50;6.00;;;11.80;99.90;;;;;;5024264;28;20442;-65
2022/03/14 06:14:34;;;;;;;5.90;5.50;;;11.80;99.90;;;;;;5031254;28;20185;-64
2022/03/14 06:17:00;;;;;;;5.77;5.37;;;11.90;99.90;;;;;;5019059;28;20425;-64
2022/03/14 06:19:26;;;;;;;5.83;5.27;;;11.90;99.90;;;;;;5008005;28;20578;-64
2022/03/14 06:21:52;;;;;;;7.80;7.20;;;11.80;99.90;;;;;;5030422;28;20952;-65
2022/03/14 06:24:17;;;;;;;6.50;6.00;;;11.90;99.90;;;;;;5030963;28;20457;-64
2022/03/14 06:26:43;;;;;;;5.30;4.83;;;11.90;99.90;;;;;;5030156;28;20788;-70
2022/03/14 06:29:09;;;;;;;4.93;4.50;;;11.90;99.90;;;;;;5026831;28;20213;-65
2022/03/14 06:31:35;;;;;;;4.87;4.47;;;11.90;99.90;;;;;;5031941;28;20955;-65
2022/03/14 06:34:01;;;;;;;5.83;5.30;;;12.00;99.90;;;;;;5026597;28;20182;-65
2022/03/14 06:36:42;;;;;;;7.37;6.67;;;12.00;99.90;;;;;;5017086;28;20828;-65
2022/03/14 06:39:17;;;;;;;6.90;6.30;;;12.00;99.90;;;;;;5034979;28;20416;-65
2022/03/14 06:41:43;;;;;;;9.33;8.20;;;12.00;99.90;;;;;;5034984;28;20428;-64
2022/03/14 06:44:08;;;;;;;8.30;7.50;;;12.10;99.90;;;;;;5031546;28;20190;-65
2022/03/14 06:46:34;;;;;;;7.03;6.47;;;12.10;99.90;;;;;;5034361;28;20193;-65
2022/03/14 06:49:00;;;;;;;6.73;6.23;;;12.10;99.90;;;;;;5033091;28;20268;-65
2022/03/14 06:51:26;;;;;;;8.50;7.80;;;12.10;99.90;;;;;;5034543;28;20178;-65
2022/03/14 06:53:52;;;;;;;6.80;6.20;;;12.10;99.90;;;;;;5034053;28;20414;-65
2022/03/14 06:56:18;;;;;;;7.07;6.37;;;12.10;99.90;;;;;;5032034;28;20481;-65
2022/03/14 06:58:44;;;;;;;8.23;7.43;;;12.10;99.90;;;;;;5031037;28;20181;-65
2022/03/14 07:01:11;;;;;;;9.20;8.30;;;12.10;99.90;;;;;;5022521;28;20179;-65
2022/03/14 07:03:38;;;;;;;8.40;7.70;;;12.10;99.90;;;;;;5034286;28;20417;-65
2022/03/14 07:06:04;;;;;;;9.30;8.50;;;12.10;99.90;;;;;;5033294;28;20522;-65
2022/03/14 07:08:30;;;;;;;7.40;6.70;;;12.10;99.90;;;;;;5016308;28;20414;-65
2022/03/14 07:10:55;;;;;;;9.63;8.93;;;12.10;99.90;;;;;;5033831;28;20470;-65
2022/03/14 07:13:21;;;;;;;8.53;7.80;;;12.10;99.90;;;;;;5034367;28;20622;-66
2022/03/14 07:15:47;;;;;;;8.90;8.00;;;12.10;99.90;;;;;;5029036;28;20189;-68
2022/03/14 07:18:13;;;;;;;7.03;6.43;;;12.10;99.90;;;;;;5018307;28;20269;-65
2022/03/14 07:20:39;;;;;;;8.47;7.67;;;12.00;99.90;;;;;;5015763;28;20546;-66
2022/03/14 07:23:07;;;;;;;7.73;7.10;;;12.00;99.90;;;;;;5030023;28;20417;-65
2022/03/14 07:25:39;;;;;;;6.90;6.40;;;12.00;99.90;;;;;;5028313;28;20199;-65
2022/03/14 07:28:07;;;;;;;8.37;7.60;;;12.00;99.90;;;;;;5016167;28;20414;-65
2022/03/14 07:30:34;;;;;;;9.63;8.73;;;12.00;99.90;;;;;;5014193;28;20468;-65
2022/03/14 07:33:00;;;;;;;8.23;7.47;;;12.00;99.90;;;;;;5013060;28;20446;-65
2022/03/14 07:35:27;;;;;;;9.50;8.70;;;12.00;99.90;;;;;;4996891;28;20422;-65
2022/03/14 07:37:53;;;;;;;9.90;9.00;;;12.10;99.90;;;;;;5013516;28;20770;-65
2022/03/14 07:40:20;;;;;;;8.80;7.93;;;12.00;99.90;;;;;;5013635;28;20398;-65
2022/03/14 07:42:49;;;;;;;9.43;8.63;;;11.90;99.90;;;;;;5014291;28;20423;-65
2022/03/14 07:45:16;;;;;;;9.43;8.60;;;11.90;99.90;;;;;;5013963;28;20485;-65
2022/03/14 07:47:43;;;;;;;10.50;9.60;;;11.90;99.90;;;;;;4996303;28;20417;-65
2022/03/14 07:50:11;;;;;;;11.07;9.40;;;11.80;99.90;;;;;;5013129;28;20857;-65
2022/03/14 07:52:37;;;;;;;9.10;8.20;;;11.90;99.90;;;;;;5014195;28;20420;-65
2022/03/14 07:55:05;;;;;;;10.70;9.70;;;11.90;99.90;;;;;;5013501;28;20456;-65
2022/03/14 07:57:32;;;;;;;10.17;9.17;;;11.90;99.90;;;;;;5014028;28;20442;-65
2022/03/14 07:59:59;;;;;;;8.97;8.07;;;11.80;99.90;;;;;;5013218;28;20413;-65
2022/03/14 08:02:25;;;;;;;9.53;8.43;;;11.90;99.90;;;;;;4996361;28;20422;-65
2022/03/14 08:04:51;;;;;;;9.00;8.10;;;11.90;99.90;;;;;;5013216;28;20504;-65
2022/03/14 08:07:17;;;;;;;9.80;7.93;;;11.90;99.90;;;;;;5013887;28;20906;-65
2022/03/14 08:09:42;;;;;;;10.03;7.67;;;11.90;99.90;;;;;;5013752;28;20232;-65
2022/03/14 08:12:11;;;;;;;11.43;7.87;;;11.90;99.90;;;;;;5013420;28;20888;-65
2022/03/14 08:14:37;;;;;;;8.80;7.87;;;12.00;99.90;;;;;;5013808;28;20755;-65
2022/03/14 08:17:03;;;;;;;9.63;8.63;;;12.00;99.90;;;;;;5013093;28;20406;-65
2022/03/14 08:19:29;;;;;;;10.77;9.60;;;12.00;99.90;;;;;;5013869;28;20667;-65
2022/03/14 08:21:57;;;;;;;9.33;8.43;;;12.00;99.90;;;;;;5013026;28;20410;-65
2022/03/14 08:24:23;;;;;;;9.87;8.97;;;12.00;99.90;;;;;;5013626;28;20453;-65
2022/03/14 08:26:50;;;;;;;9.63;8.73;;;12.00;99.90;;;;;;5013227;28;20902;-65
2022/03/14 08:29:15;;;;;;;9.43;8.63;;;12.00;99.90;;;;;;5013517;28;20416;-65
2022/03/14 08:31:42;;;;;;;10.13;9.03;;;12.00;99.90;;;;;;5013431;28;20408;-65
2022/03/14 08:34:08;;;;;;;11.13;9.27;;;12.00;99.90;;;;;;5012807;28;20411;-65
2022/03/14 08:36:36;;;;;;;9.30;8.47;;;12.00;99.90;;;;;;5013081;28;20810;-65
2022/03/14 08:39:05;;;;;;;9.60;8.60;;;12.00;99.90;;;;;;5012766;28;20171;-65
2022/03/14 08:41:31;;;;;;;9.37;8.40;;;12.10;99.90;;;;;;5013548;28;20483;-65
2022/03/14 08:43:57;;;;;;;9.80;8.80;;;12.10;99.90;;;;;;5012514;28;20406;-65
2022/03/14 08:46:23;;;;;;;10.00;8.90;;;12.10;99.90;;;;;;5013126;28;20466;-65
2022/03/14 08:48:49;;;;;;;10.10;8.40;;;12.10;99.90;;;;;;5012842;28;20246;-65
2022/03/14 08:51:15;;;;;;;9.00;8.20;;;12.10;99.90;;;;;;5012221;28;20410;-65
2022/03/14 08:53:41;;;;;;;9.13;8.10;;;12.10;99.90;;;;;;5012954;28;20409;-65
2022/03/14 08:56:07;;;;;;;11.47;8.17;;;12.20;99.90;;;;;;5012554;28;20415;-65
2022/03/14 08:58:33;;;;;;;9.40;8.40;;;12.30;99.90;;;;;;5013096;28;20438;-65
2022/03/14 09:00:59;;;;;;;8.63;7.90;;;12.30;99.90;;;;;;5012792;28;20175;-65
2022/03/14 09:03:26;;;;;;;10.03;8.30;;;12.30;99.90;;;;;;5012951;28;20418;-65
2022/03/14 09:05:56;;;;;;;9.73;7.87;;;12.30;99.90;;;;;;5012377;28;20447;-71
2022/03/14 09:08:24;;;;;;;9.50;8.60;;;12.30;99.90;;;;;;5013237;28;20421;-65
2022/03/14 09:10:53;;;;;;;10.90;8.17;;;12.40;99.90;;;;;;5012765;28;20394;-65
2022/03/14 09:13:21;;;;;;;8.57;7.80;;;12.40;99.90;;;;;;5012571;28;20459;-65
2022/03/14 09:15:48;;;;;;;8.50;7.40;;;12.40;99.90;;;;;;5013242;28;20446;-65
2022/03/14 09:18:14;;;;;;;8.67;7.87;;;12.50;99.90;;;;;;5012476;28;20410;-65
2022/03/14 09:20:41;;;;;;;11.63;10.43;;;12.50;99.90;;;;;;5012863;28;20411;-65
2022/03/14 09:23:07;;;;;;;10.03;8.70;;;12.50;99.90;;;;;;5012203;28;20407;-65
2022/03/14 09:25:33;;;;;;;9.47;8.20;;;12.40;99.90;;;;;;5012498;28;20477;-65
2022/03/14 09:27:59;;;;;;;10.70;8.80;;;12.40;99.90;;;;;;5012534;28;20406;-65
2022/03/14 09:30:26;;;;;;;8.60;7.70;;;12.50;99.90;;;;;;5012431;28;20167;-65
2022/03/14 09:32:53;;;;;;;9.63;8.63;;;12.30;99.90;;;;;;5012675;28;20421;-65
2022/03/14 09:35:20;;;;;;;8.60;7.80;;;12.40;99.90;;;;;;4994827;28;20450;-65
2022/03/14 09:37:46;;;;;;;9.37;8.40;;;12.40;99.90;;;;;;5012671;28;20402;-65
2022/03/14 09:40:16;;;;;;;8.60;7.53;;;12.40;99.90;;;;;;5012072;28;20497;-65
2022/03/14 09:42:44;;;;;;;8.40;7.70;;;12.40;99.90;;;;;;5012605;28;20493;-65
2022/03/14 09:45:12;;;;;;;9.20;8.30;;;12.50;99.90;;;;;;5011946;28;20454;-65
2022/03/14 09:47:42;;;;;;;12.10;8.60;;;12.60;99.90;;;;;;5012520;28;20409;-65
2022/03/14 09:50:11;;;;;;;8.77;7.63;;;12.60;99.90;;;;;;5012009;28;20458;-65
2022/03/14 09:52:42;;;;;;;7.97;7.20;;;12.60;99.90;;;;;;5012267;28;20466;-65
2022/03/14 09:55:10;;;;;;;10.97;9.93;;;12.70;99.90;;;;;;4993791;28;20390;-65
2022/03/14 09:57:42;;;;;;;9.40;8.50;;;12.70;99.90;;;;;;5012073;28;20411;-65
2022/03/14 10:00:13;;;;;;;8.10;7.40;;;12.70;99.90;;;;;;5011904;28;20861;-66
2022/03/14 10:02:39;;;;;;;9.20;8.30;;;12.80;99.90;;;;;;5014037;28;20875;-65
2022/03/14 10:05:09;;;;;;;8.50;7.67;;;12.80;99.90;;;;;;5015147;28;20938;-65
2022/03/14 10:07:36;;;;;;;8.50;7.70;;;12.70;99.90;;;;;;5016105;28;20777;-65
2022/03/14 10:10:07;;;;;;;10.80;10.00;;;12.70;99.90;;;;;;5015457;28;20400;-65
2022/03/14 10:12:33;;;;;;;8.60;7.80;;;12.70;99.90;;;;;;5016409;28;20392;-65
2022/03/14 10:15:04;;;;;;;8.20;7.43;;;12.70;99.90;;;;;;5015112;28;20891;-65
2022/03/14 10:17:31;;;;;;;9.87;9.07;;;12.70;99.90;;;;;;5016266;28;20792;-65
2022/03/14 10:19:59;;;;;;;11.67;8.37;;;12.60;99.90;;;;;;5015494;28;20763;-66
2022/03/14 10:22:35;;;;;;;10.27;7.47;;;12.60;99.90;;;;;;4998351;28;20403;-65
2022/03/14 10:25:22;;;;;;;8.50;7.37;;;12.70;99.90;;;;;;5015060;28;20450;-65
2022/03/14 10:27:51;;;;;;;8.73;7.50;;;12.60;99.90;;;;;;5015533;28;20430;-65
2022/03/14 10:30:31;;;;;;;9.70;8.30;;;12.50;99.90;;;;;;4997503;28;20422;-65
2022/03/14 10:33:01;;;;;;;9.20;8.50;;;12.60;99.90;;;;;;5015610;28;20423;-65
2022/03/14 10:35:34;;;;;;;8.60;7.83;;;12.60;99.90;;;;;;5016051;28;20422;-65
2022/03/14 10:38:02;;;;;;;9.23;8.40;;;12.70;99.90;;;;;;5016092;28;20883;-66
2022/03/14 10:40:30;;;;;;;9.17;8.33;;;12.60;99.90;;;;;;5016174;28;20442;-66
2022/03/14 10:42:56;;;;;;;8.50;7.70;;;12.60;99.90;;;;;;5015547;28;20825;-66
2022/03/14 10:45:21;;;;;;;7.40;6.80;;;12.60;99.90;;;;;;5014753;28;20489;-65
2022/03/14 10:47:57;;;;;;;12.30;6.70;;;12.50;99.90;;;;;;5015289;28;20202;-65
2022/03/14 10:50:37;;;;;;;6.80;6.20;;;12.50;99.90;;;;;;5014477;28;20232;-65
2022/03/14 10:53:19;;;;;;;6.20;5.60;;;12.50;99.90;;;;;;5014767;28;20402;-66
2022/03/14 10:55:56;;;;;;;7.70;5.80;;;12.50;99.90;;;;;;5016792;28;20817;-65
2022/03/14 10:58:29;;;;;;;7.30;6.60;;;12.40;99.90;;;;;;5015594;28;20886;-65
2022/03/14 11:01:04;;;;;;;8.30;7.70;;;12.30;99.90;;;;;;5016287;28;20420;-65
2022/03/14 11:03:35;;;;;;;7.60;6.80;;;12.30;99.90;;;;;;5015191;28;20399;-65
2022/03/14 11:06:01;;;;;;;6.73;6.13;;;12.30;99.90;;;;;;5014374;28;20450;-66
2022/03/14 11:08:45;;;;;;;6.80;6.07;;;12.30;99.90;;;;;;5015035;28;20417;-65
2022/03/14 11:11:22;;;;;;;7.90;6.70;;;12.30;99.90;;;;;;5014051;28;20424;-65
2022/03/14 11:13:53;;;;;;;6.10;5.50;;;12.30;99.90;;;;;;5014657;28;20397;-65
2022/03/14 11:16:24;;;;;;;7.73;6.40;;;12.30;99.90;;;;;;5014247;28;20409;-65
2022/03/14 11:18:51;;;;;;;10.83;5.87;;;12.40;99.90;;;;;;5014565;28;20422;-65
2022/03/14 11:21:19;;;;;;;6.37;5.70;;;12.50;99.90;;;;;;5014363;28;20414;-66
2022/03/14 11:23:48;;;;;;;8.43;6.00;;;12.40;99.90;;;;;;5014805;28;20413;-65
2022/03/14 11:26:16;;;;;;;8.50;7.27;;;12.40;99.90;;;;;;5013966;28;20448;-65
2022/03/14 11:28:46;;;;;;;6.60;6.00;;;12.50;99.90;;;;;;5014686;28;20419;-65
2022/03/14 11:31:12;;;;;;;7.50;6.07;;;12.60;99.90;;;;;;5013962;28;20803;-65
2022/03/14 11:33:38;;;;;;;8.23;7.63;;;12.70;99.90;;;;;;5014502;28;20459;-65
2022/03/14 11:36:05;;;;;;;9.03;7.43;;;12.80;99.90;;;;;;5013911;28;20416;-65
2022/03/14 11:38:32;;;;;;;8.10;7.30;;;12.90;99.90;;;;;;5014402;28;20442;-65
2022/03/14 11:40:58;;;;;;;7.77;6.97;;;13.00;99.90;;;;;;5013972;28;20412;-65
2022/03/14 11:43:25;;;;;;;11.23;7.60;;;13.00;99.80;;;;;;5013763;28;20422;-66
2022/03/14 11:45:52;;;;;;;7.50;6.90;;;13.10;99.50;;;;;;4996820;28;20459;-65
2022/03/14 11:48:19;;;;;;;7.70;7.00;;;13.20;99.30;;;;;;4996231;28;20724;-65
2022/03/14 11:50:46;;;;;;;8.00;7.20;;;13.30;99.10;;;;;;5014414;28;20506;-65
2022/03/14 11:53:22;;;;;;;7.27;6.63;;;13.30;99.10;;;;;;4995930;28;20448;-65
2022/03/14 11:55:57;;;;;;;7.50;6.70;;;13.40;99.40;;;;;;5014142;28;20451;-65
2022/03/14 11:58:39;;;;;;;8.20;7.50;;;13.50;99.30;;;;;;5013495;28;20508;-65
2022/03/14 12:01:18;;;;;;;6.80;6.03;;;13.60;98.70;;;;;;5013280;28;20512;-66
2022/03/14 12:03:48;;;;;;;5.93;5.43;;;13.80;98.80;;;;;;5014002;28;20394;-65
2022/03/14 12:06:14;;;;;;;7.90;5.73;;;14.00;99.30;;;;;;5013111;28;20559;-65
2022/03/14 12:08:45;;;;;;;6.80;6.20;;;14.10;97.70;;;;;;5027270;28;20421;-65
2022/03/14 12:11:26;;;;;;;7.63;6.93;;;14.20;97.30;;;;;;5030996;28;20448;-65
2022/03/14 12:13:52;;;;;;;9.90;6.93;;;14.20;96.80;;;;;;5023545;28;20477;-66
2022/03/14 12:16:37;;;;;;;7.17;6.30;;;14.10;96.20;;;;;;5015160;28;20442;-66
2022/03/14 12:19:37;;;;;;;7.57;6.87;;;14.10;96.60;;;;;;5022394;28;20464;-69
2022/03/14 12:22:05;;;;;;;6.80;6.20;;;14.10;96.60;;;;;;5010075;28;20960;-65
2022/03/14 12:24:37;;;;;;;7.10;6.40;;;14.10;96.00;;;;;;5032149;28;20492;-66
2022/03/14 12:27:19;;;;;;;10.03;9.30;;;14.20;95.20;;;;;;5032008;28;20419;-66
2022/03/14 12:29:47;;;;;;;7.87;7.03;;;14.30;94.40;;;;;;5012773;28;20845;-66
2022/03/14 12:32:35;;;;;;;7.30;6.30;;;14.40;94.10;;;;;;5021430;28;20421;-66
2022/03/14 12:35:12;;;;;;;9.50;7.00;;;14.40;93.60;;;;;;5013105;28;20429;-66
2022/03/14 12:37:43;;;;;;;6.80;6.17;;;14.40;93.70;;;;;;5008045;28;20431;-66
2022/03/14 12:40:15;;;;;;;9.77;7.00;;;14.50;94.10;;;;;;5027194;28;20435;-70
2022/03/14 12:42:43;;;;;;;6.83;6.23;;;14.50;93.60;;;;;;5031845;28;20410;-65